sensor_id;sensor_type;location;lat;lon;timestamp;P1;durP1;ratioP1;P2;durP2;ratioP2
48871;SDS011;36154;51.674;7.824;2024-03-23T00:54:30;0.90;;;0.80;;
48871;SDS011;36154;51.674;7.824;2024-03-23T00:56:55;0.90;;;0.90;;
48871;SDS011;36154;51.674;7.824;2024-03-23T00:59:21;1.00;;;0.63;;
48871;SDS011;36154;51.674;7.824;2024-03-23T01:01:47;0.77;;;0.77;;
48871;SDS011;36154;51.674;7.824;2024-03-23T01:04:12;0.83;;;0.83;;
48871;SDS011;36154;51.674;7.824;2024-03-23T01:06:37;0.93;;;0.90;;
48871;SDS011;36154;51.674;7.824;2024-03-23T01:09:03;0.60;;;0.60;;
48871;SDS011;36154;51.674;7.824;2024-03-23T01:11:28;0.82;;;0.82;;
48871;SDS011;36154;51.674;7.824;2024-03-23T01:13:53;0.70;;;0.70;;
48871;SDS011;36154;51.674;7.824;2024-03-23T01:16:21;0.70;;;0.70;;
48871;SDS011;36154;51.674;7.824;2024-03-23T01:18:46;0.60;;;0.60;;
48871;SDS011;36154;51.674;7.824;2024-03-23T01:21:11;0.80;;;0.80;;
48871;SDS011;36154;51.674;7.824;2024-03-23T01:23:37;0.77;;;0.70;;
48871;SDS011;36154;51.674;7.824;2024-03-23T01:26:02;0.70;;;0.70;;
48871;SDS011;36154;51.674;7.824;2024-03-23T01:28:27;0.80;;;0.80;;
48871;SDS011;36154;51.674;7.824;2024-03-23T01:30:53;0.70;;;0.70;;
48871;SDS011;36154;51.674;7.824;2024-03-23T01:33:18;0.70;;;0.67;;
48871;SDS011;36154;51.674;7.824;2024-03-23T01:35:43;0.77;;;0.73;;
48871;SDS011;36154;51.674;7.824;2024-03-23T01:38:09;0.63;;;0.63;;
48871;SDS011;36154;51.674;7.824;2024-03-23T01:40:34;0.90;;;0.60;;
48871;SDS011;36154;51.674;7.824;2024-03-23T01:43:06;0.70;;;0.70;;
48871;SDS011;36154;51.674;7.824;2024-03-23T01:45:33;0.75;;;0.60;;
48871;SDS011;36154;51.674;7.824;2024-03-23T01:47:58;0.50;;;0.50;;
48871;SDS011;36154;51.674;7.824;2024-03-23T01:50:24;0.82;;;0.70;;
48871;SDS011;36154;51.674;7.824;2024-03-23T01:52:50;0.88;;;0.80;;
48871;SDS011;36154;51.674;7.824;2024-03-23T01:55:16;0.63;;;0.63;;
48871;SDS011;36154;51.674;7.824;2024-03-23T01:57:41;0.90;;;0.55;;
48871;SDS011;36154;51.674;7.824;2024-03-23T02:00:07;0.70;;;0.65;;
48871;SDS011;36154;51.674;7.824;2024-03-23T02:02:34;0.60;;;0.60;;
48871;SDS011;36154;51.674;7.824;2024-03-23T02:04:59;0.50;;;0.50;;
48871;SDS011;36154;51.674;7.824;2024-03-23T02:07:24;0.60;;;0.60;;
48871;SDS011;36154;51.674;7.824;2024-03-23T02:09:50;0.47;;;0.47;;
48871;SDS011;36154;51.674;7.824;2024-03-23T02:12:16;0.50;;;0.50;;
48871;SDS011;36154;51.674;7.824;2024-03-23T02:14:42;0.65;;;0.65;;
48871;SDS011;36154;51.674;7.824;2024-03-23T02:17:07;0.60;;;0.60;;
48871;SDS011;36154;51.674;7.824;2024-03-23T02:19:33;0.60;;;0.60;;
48871;SDS011;36154;51.674;7.824;2024-03-23T02:21:59;0.50;;;0.50;;
48871;SDS011;36154;51.674;7.824;2024-03-23T02:24:24;0.65;;;0.50;;
48871;SDS011;36154;51.674;7.824;2024-03-23T02:26:49;0.60;;;0.60;;
48871;SDS011;36154;51.674;7.824;2024-03-23T02:29:15;0.65;;;0.57;;
48871;SDS011;36154;51.674;7.824;2024-03-23T02:31:40;0.60;;;0.60;;
48871;SDS011;36154;51.674;7.824;2024-03-23T02:34:05;1.38;;;0.50;;
48871;SDS011;36154;51.674;7.824;2024-03-23T02:36:31;0.63;;;0.60;;
48871;SDS011;36154;51.674;7.824;2024-03-23T02:38:56;0.43;;;0.38;;
48871;SDS011;36154;51.674;7.824;2024-03-23T02:41:21;0.50;;;0.40;;
48871;SDS011;36154;51.674;7.824;2024-03-23T02:43:49;0.30;;;0.30;;
48871;SDS011;36154;51.674;7.824;2024-03-23T02:46:15;0.65;;;0.52;;
48871;SDS011;36154;51.674;7.824;2024-03-23T02:48:40;0.50;;;0.50;;
48871;SDS011;36154;51.674;7.824;2024-03-23T02:51:05;0.77;;;0.60;;
48871;SDS011;36154;51.674;7.824;2024-03-23T02:53:30;0.50;;;0.50;;
48871;SDS011;36154;51.674;7.824;2024-03-23T02:55:57;0.43;;;0.30;;
48871;SDS011;36154;51.674;7.824;2024-03-23T02:58:23;0.43;;;0.43;;
48871;SDS011;36154;51.674;7.824;2024-03-23T03:00:48;0.40;;;0.40;;
48871;SDS011;36154;51.674;7.824;2024-03-23T03:03:13;0.32;;;0.30;;
48871;SDS011;36154;51.674;7.824;2024-03-23T03:05:38;0.50;;;0.50;;
48871;SDS011;36154;51.674;7.824;2024-03-23T03:08:04;0.50;;;0.30;;
48871;SDS011;36154;51.674;7.824;2024-03-23T03:10:29;1.42;;;0.40;;
48871;SDS011;36154;51.674;7.824;2024-03-23T03:12:55;0.50;;;0.50;;
48871;SDS011;36154;51.674;7.824;2024-03-23T03:15:21;0.30;;;0.30;;
48871;SDS011;36154;51.674;7.824;2024-03-23T03:17:46;0.30;;;0.20;;
48871;SDS011;36154;51.674;7.824;2024-03-23T03:20:11;0.38;;;0.30;;
48871;SDS011;36154;51.674;7.824;2024-03-23T03:22:38;0.50;;;0.47;;
48871;SDS011;36154;51.674;7.824;2024-03-23T03:25:04;0.30;;;0.30;;
48871;SDS011;36154;51.674;7.824;2024-03-23T03:27:31;0.30;;;0.30;;
48871;SDS011;36154;51.674;7.824;2024-03-23T03:29:56;0.60;;;0.40;;
48871;SDS011;36154;51.674;7.824;2024-03-23T03:32:21;0.47;;;0.30;;
48871;SDS011;36154;51.674;7.824;2024-03-23T03:34:46;0.22;;;0.22;;
48871;SDS011;36154;51.674;7.824;2024-03-23T03:37:12;0.52;;;0.50;;
48871;SDS011;36154;51.674;7.824;2024-03-23T03:39:37;0.23;;;0.20;;
48871;SDS011;36154;51.674;7.824;2024-03-23T03:42:02;0.60;;;0.40;;
48871;SDS011;36154;51.674;7.824;2024-03-23T03:44:31;0.50;;;0.25;;
48871;SDS011;36154;51.674;7.824;2024-03-23T03:46:57;0.40;;;0.40;;
48871;SDS011;36154;51.674;7.824;2024-03-23T03:49:22;0.38;;;0.28;;
48871;SDS011;36154;51.674;7.824;2024-03-23T03:51:47;0.20;;;0.20;;
48871;SDS011;36154;51.674;7.824;2024-03-23T03:54:13;0.37;;;0.30;;
48871;SDS011;36154;51.674;7.824;2024-03-23T03:56:38;0.30;;;0.30;;
48871;SDS011;36154;51.674;7.824;2024-03-23T03:59:03;0.25;;;0.25;;
48871;SDS011;36154;51.674;7.824;2024-03-23T04:01:29;0.30;;;0.30;;
48871;SDS011;36154;51.674;7.824;2024-03-23T04:03:54;0.40;;;0.40;;
48871;SDS011;36154;51.674;7.824;2024-03-23T04:06:19;1.90;;;0.13;;
48871;SDS011;36154;51.674;7.824;2024-03-23T04:08:45;0.40;;;0.30;;
48871;SDS011;36154;51.674;7.824;2024-03-23T04:11:10;0.30;;;0.20;;
48871;SDS011;36154;51.674;7.824;2024-03-23T04:13:35;0.50;;;0.30;;
48871;SDS011;36154;51.674;7.824;2024-03-23T04:16:01;0.40;;;0.40;;
48871;SDS011;36154;51.674;7.824;2024-03-23T04:18:26;0.20;;;0.20;;
48871;SDS011;36154;51.674;7.824;2024-03-23T04:20:51;0.30;;;0.30;;
48871;SDS011;36154;51.674;7.824;2024-03-23T04:23:17;0.20;;;0.20;;
48871;SDS011;36154;51.674;7.824;2024-03-23T04:25:42;0.47;;;0.40;;
48871;SDS011;36154;51.674;7.824;2024-03-23T04:28:08;0.82;;;0.30;;
48871;SDS011;36154;51.674;7.824;2024-03-23T04:30:33;0.32;;;0.30;;
48871;SDS011;36154;51.674;7.824;2024-03-23T04:32:59;0.40;;;0.40;;
48871;SDS011;36154;51.674;7.824;2024-03-23T04:35:25;0.20;;;0.20;;
48871;SDS011;36154;51.674;7.824;2024-03-23T04:37:51;0.30;;;0.20;;
48871;SDS011;36154;51.674;7.824;2024-03-23T04:40:20;0.50;;;0.30;;
48871;SDS011;36154;51.674;7.824;2024-03-23T04:42:45;0.63;;;0.20;;
48871;SDS011;36154;51.674;7.824;2024-03-23T04:45:11;0.30;;;0.20;;
48871;SDS011;36154;51.674;7.824;2024-03-23T04:47:37;1.52;;;0.20;;
48871;SDS011;36154;51.674;7.824;2024-03-23T04:50:03;0.25;;;0.25;;
48871;SDS011;36154;51.674;7.824;2024-03-23T04:52:29;0.32;;;0.20;;
48871;SDS011;36154;51.674;7.824;2024-03-23T04:54:55;0.65;;;0.20;;
48871;SDS011;36154;51.674;7.824;2024-03-23T04:57:20;0.35;;;0.30;;
48871;SDS011;36154;51.674;7.824;2024-03-23T04:59:45;0.60;;;0.20;;
48871;SDS011;36154;51.674;7.824;2024-03-23T05:02:10;0.45;;;0.20;;
48871;SDS011;36154;51.674;7.824;2024-03-23T05:04:36;0.28;;;0.20;;
48871;SDS011;36154;51.674;7.824;2024-03-23T05:07:02;0.20;;;0.20;;
48871;SDS011;36154;51.674;7.824;2024-03-23T05:09:27;0.30;;;0.20;;
48871;SDS011;36154;51.674;7.824;2024-03-23T05:11:55;0.20;;;0.20;;
48871;SDS011;36154;51.674;7.824;2024-03-23T05:14:21;0.30;;;0.30;;
48871;SDS011;36154;51.674;7.824;2024-03-23T05:16:46;0.30;;;0.30;;
48871;SDS011;36154;51.674;7.824;2024-03-23T05:19:11;0.40;;;0.20;;
48871;SDS011;36154;51.674;7.824;2024-03-23T05:21:36;0.28;;;0.20;;
48871;SDS011;36154;51.674;7.824;2024-03-23T05:24:02;0.32;;;0.20;;
48871;SDS011;36154;51.674;7.824;2024-03-23T05:26:28;0.20;;;0.20;;
48871;SDS011;36154;51.674;7.824;2024-03-23T05:28:53;0.30;;;0.20;;
48871;SDS011;36154;51.674;7.824;2024-03-23T05:31:24;0.30;;;0.27;;
48871;SDS011;36154;51.674;7.824;2024-03-23T05:33:50;0.43;;;0.20;;
48871;SDS011;36154;51.674;7.824;2024-03-23T05:36:15;0.20;;;0.20;;
48871;SDS011;36154;51.674;7.824;2024-03-23T05:38:41;0.20;;;0.20;;
48871;SDS011;36154;51.674;7.824;2024-03-23T05:41:07;0.20;;;0.20;;
48871;SDS011;36154;51.674;7.824;2024-03-23T05:43:32;0.30;;;0.20;;
48871;SDS011;36154;51.674;7.824;2024-03-23T05:45:58;0.25;;;0.17;;
48871;SDS011;36154;51.674;7.824;2024-03-23T05:48:25;0.50;;;0.28;;
48871;SDS011;36154;51.674;7.824;2024-03-23T05:50:51;0.30;;;0.20;;
48871;SDS011;36154;51.674;7.824;2024-03-23T05:53:17;0.28;;;0.28;;
48871;SDS011;36154;51.674;7.824;2024-03-23T05:55:45;0.20;;;0.20;;
48871;SDS011;36154;51.674;7.824;2024-03-23T05:58:10;0.30;;;0.20;;
48871;SDS011;36154;51.674;7.824;2024-03-23T06:00:35;0.30;;;0.20;;
48871;SDS011;36154;51.674;7.824;2024-03-23T06:03:01;0.10;;;0.10;;
48871;SDS011;36154;51.674;7.824;2024-03-23T06:05:26;0.40;;;0.22;;
48871;SDS011;36154;51.674;7.824;2024-03-23T06:07:52;0.32;;;0.30;;
48871;SDS011;36154;51.674;7.824;2024-03-23T06:10:17;0.30;;;0.30;;
48871;SDS011;36154;51.674;7.824;2024-03-23T06:12:42;0.75;;;0.20;;
48871;SDS011;36154;51.674;7.824;2024-03-23T06:15:08;0.52;;;0.32;;
48871;SDS011;36154;51.674;7.824;2024-03-23T06:17:35;0.20;;;0.20;;
48871;SDS011;36154;51.674;7.824;2024-03-23T06:20:01;0.20;;;0.20;;
48871;SDS011;36154;51.674;7.824;2024-03-23T06:22:26;0.60;;;0.50;;
48871;SDS011;36154;51.674;7.824;2024-03-23T06:24:52;0.30;;;0.20;;
48871;SDS011;36154;51.674;7.824;2024-03-23T06:27:17;0.38;;;0.30;;
48871;SDS011;36154;51.674;7.824;2024-03-23T06:29:42;0.22;;;0.20;;
48871;SDS011;36154;51.674;7.824;2024-03-23T06:32:08;0.63;;;0.20;;
48871;SDS011;36154;51.674;7.824;2024-03-23T06:34:33;0.50;;;0.20;;
48871;SDS011;36154;51.674;7.824;2024-03-23T06:36:58;0.33;;;0.30;;
48871;SDS011;36154;51.674;7.824;2024-03-23T06:39:23;0.38;;;0.30;;
48871;SDS011;36154;51.674;7.824;2024-03-23T06:41:52;0.30;;;0.20;;
48871;SDS011;36154;51.674;7.824;2024-03-23T06:44:18;0.30;;;0.20;;
48871;SDS011;36154;51.674;7.824;2024-03-23T06:46:44;0.30;;;0.30;;
48871;SDS011;36154;51.674;7.824;2024-03-23T06:49:10;0.55;;;0.20;;
48871;SDS011;36154;51.674;7.824;2024-03-23T06:51:35;0.20;;;0.20;;
48871;SDS011;36154;51.674;7.824;2024-03-23T06:54:01;0.65;;;0.30;;
48871;SDS011;36154;51.674;7.824;2024-03-23T06:56:28;0.30;;;0.20;;
48871;SDS011;36154;51.674;7.824;2024-03-23T06:58:53;0.38;;;0.32;;
48871;SDS011;36154;51.674;7.824;2024-03-23T07:01:19;0.30;;;0.20;;
48871;SDS011;36154;51.674;7.824;2024-03-23T07:03:44;0.22;;;0.20;;
48871;SDS011;36154;51.674;7.824;2024-03-23T07:06:10;0.40;;;0.30;;
48871;SDS011;36154;51.674;7.824;2024-03-23T07:08:35;0.38;;;0.30;;
48871;SDS011;36154;51.674;7.824;2024-03-23T07:11:00;0.60;;;0.20;;
48871;SDS011;36154;51.674;7.824;2024-03-23T07:13:26;0.20;;;0.20;;
48871;SDS011;36154;51.674;7.824;2024-03-23T07:15:51;0.33;;;0.20;;
48871;SDS011;36154;51.674;7.824;2024-03-23T07:18:17;0.45;;;0.20;;
48871;SDS011;36154;51.674;7.824;2024-03-23T07:20:45;0.45;;;0.30;;
48871;SDS011;36154;51.674;7.824;2024-03-23T07:23:21;0.20;;;0.20;;
48871;SDS011;36154;51.674;7.824;2024-03-23T07:25:55;0.70;;;0.30;;
48871;SDS011;36154;51.674;7.824;2024-03-23T07:28:21;0.75;;;0.20;;
48871;SDS011;36154;51.674;7.824;2024-03-23T07:30:46;0.50;;;0.20;;
48871;SDS011;36154;51.674;7.824;2024-03-23T07:33:12;0.10;;;0.10;;
48871;SDS011;36154;51.674;7.824;2024-03-23T07:35:37;2.17;;;0.20;;
48871;SDS011;36154;51.674;7.824;2024-03-23T07:38:03;0.50;;;0.20;;
48871;SDS011;36154;51.674;7.824;2024-03-23T07:40:30;0.30;;;0.30;;
48871;SDS011;36154;51.674;7.824;2024-03-23T07:42:55;0.50;;;0.20;;
48871;SDS011;36154;51.674;7.824;2024-03-23T07:45:21;0.55;;;0.40;;
48871;SDS011;36154;51.674;7.824;2024-03-23T07:47:46;0.55;;;0.38;;
48871;SDS011;36154;51.674;7.824;2024-03-23T07:50:11;1.07;;;0.50;;
48871;SDS011;36154;51.674;7.824;2024-03-23T07:52:36;0.60;;;0.40;;
48871;SDS011;36154;51.674;7.824;2024-03-23T07:55:02;0.50;;;0.30;;
48871;SDS011;36154;51.674;7.824;2024-03-23T07:57:28;0.77;;;0.40;;
48871;SDS011;36154;51.674;7.824;2024-03-23T07:59:53;0.30;;;0.20;;
48871;SDS011;36154;51.674;7.824;2024-03-23T08:02:18;0.25;;;0.22;;
48871;SDS011;36154;51.674;7.824;2024-03-23T08:04:43;0.20;;;0.20;;
48871;SDS011;36154;51.674;7.824;2024-03-23T08:07:09;0.73;;;0.30;;
48871;SDS011;36154;51.674;7.824;2024-03-23T08:09:34;0.30;;;0.20;;
48871;SDS011;36154;51.674;7.824;2024-03-23T08:11:59;0.35;;;0.30;;
48871;SDS011;36154;51.674;7.824;2024-03-23T08:14:25;0.35;;;0.25;;
48871;SDS011;36154;51.674;7.824;2024-03-23T08:16:50;0.70;;;0.30;;
48871;SDS011;36154;51.674;7.824;2024-03-23T08:19:16;0.40;;;0.40;;
48871;SDS011;36154;51.674;7.824;2024-03-23T08:21:41;0.30;;;0.30;;
48871;SDS011;36154;51.674;7.824;2024-03-23T08:24:07;0.45;;;0.30;;
48871;SDS011;36154;51.674;7.824;2024-03-23T08:26:32;0.30;;;0.30;;
48871;SDS011;36154;51.674;7.824;2024-03-23T08:28:58;0.55;;;0.20;;
48871;SDS011;36154;51.674;7.824;2024-03-23T08:31:23;0.20;;;0.20;;
48871;SDS011;36154;51.674;7.824;2024-03-23T08:33:48;0.40;;;0.40;;
48871;SDS011;36154;51.674;7.824;2024-03-23T08:36:13;0.95;;;0.32;;
48871;SDS011;36154;51.674;7.824;2024-03-23T08:38:39;1.13;;;0.60;;
48871;SDS011;36154;51.674;7.824;2024-03-23T08:41:06;0.30;;;0.30;;
48871;SDS011;36154;51.674;7.824;2024-03-23T08:43:35;0.45;;;0.30;;
48871;SDS011;36154;51.674;7.824;2024-03-23T08:46:11;0.70;;;0.40;;
48871;SDS011;36154;51.674;7.824;2024-03-23T08:48:38;0.73;;;0.30;;
48871;SDS011;36154;51.674;7.824;2024-03-23T08:51:06;0.40;;;0.38;;
48871;SDS011;36154;51.674;7.824;2024-03-23T08:53:32;0.82;;;0.32;;
48871;SDS011;36154;51.674;7.824;2024-03-23T08:55:59;0.50;;;0.40;;
48871;SDS011;36154;51.674;7.824;2024-03-23T08:58:26;1.30;;;0.40;;
48871;SDS011;36154;51.674;7.824;2024-03-23T09:00:53;3.85;;;1.70;;
48871;SDS011;36154;51.674;7.824;2024-03-23T09:03:23;7.15;;;1.98;;
48871;SDS011;36154;51.674;7.824;2024-03-23T09:05:49;8.82;;;2.53;;
48871;SDS011;36154;51.674;7.824;2024-03-23T09:08:15;7.72;;;2.42;;
48871;SDS011;36154;51.674;7.824;2024-03-23T09:10:40;8.70;;;2.55;;
48871;SDS011;36154;51.674;7.824;2024-03-23T09:13:06;5.88;;;2.30;;
48871;SDS011;36154;51.674;7.824;2024-03-23T09:15:32;7.47;;;2.28;;
48871;SDS011;36154;51.674;7.824;2024-03-23T09:18:02;7.25;;;2.70;;
48871;SDS011;36154;51.674;7.824;2024-03-23T09:20:27;7.35;;;2.60;;
48871;SDS011;36154;51.674;7.824;2024-03-23T09:22:53;7.53;;;2.75;;
48871;SDS011;36154;51.674;7.824;2024-03-23T09:25:18;7.88;;;2.55;;
48871;SDS011;36154;51.674;7.824;2024-03-23T09:27:45;9.07;;;2.78;;
48871;SDS011;36154;51.674;7.824;2024-03-23T09:30:11;6.28;;;2.28;;
48871;SDS011;36154;51.674;7.824;2024-03-23T09:32:37;9.45;;;2.67;;
48871;SDS011;36154;51.674;7.824;2024-03-23T09:35:02;6.40;;;2.10;;
48871;SDS011;36154;51.674;7.824;2024-03-23T09:37:28;5.10;;;1.58;;
48871;SDS011;36154;51.674;7.824;2024-03-23T09:39:53;5.53;;;1.60;;
48871;SDS011;36154;51.674;7.824;2024-03-23T09:42:18;3.13;;;1.48;;
48871;SDS011;36154;51.674;7.824;2024-03-23T09:44:44;4.45;;;1.60;;
48871;SDS011;36154;51.674;7.824;2024-03-23T09:47:09;5.10;;;1.52;;
48871;SDS011;36154;51.674;7.824;2024-03-23T09:49:35;4.60;;;1.30;;
48871;SDS011;36154;51.674;7.824;2024-03-23T09:52:03;5.10;;;1.20;;
48871;SDS011;36154;51.674;7.824;2024-03-23T09:54:29;2.78;;;1.30;;
48871;SDS011;36154;51.674;7.824;2024-03-23T09:56:54;2.92;;;1.10;;
48871;SDS011;36154;51.674;7.824;2024-03-23T09:59:20;2.88;;;0.88;;
48871;SDS011;36154;51.674;7.824;2024-03-23T10:01:45;2.25;;;0.90;;
48871;SDS011;36154;51.674;7.824;2024-03-23T10:04:10;3.08;;;1.00;;
48871;SDS011;36154;51.674;7.824;2024-03-23T10:06:36;2.15;;;0.95;;
48871;SDS011;36154;51.674;7.824;2024-03-23T10:09:02;2.47;;;0.93;;
48871;SDS011;36154;51.674;7.824;2024-03-23T10:11:45;4.57;;;0.88;;
48871;SDS011;36154;51.674;7.824;2024-03-23T10:14:16;1.70;;;0.80;;
48871;SDS011;36154;51.674;7.824;2024-03-23T10:16:54;1.95;;;1.00;;
48871;SDS011;36154;51.674;7.824;2024-03-23T10:19:29;3.13;;;0.95;;
48871;SDS011;36154;51.674;7.824;2024-03-23T10:21:56;3.67;;;1.10;;
48871;SDS011;36154;51.674;7.824;2024-03-23T10:24:21;1.63;;;0.90;;
48871;SDS011;36154;51.674;7.824;2024-03-23T10:26:47;1.95;;;0.45;;
48871;SDS011;36154;51.674;7.824;2024-03-23T10:29:21;2.47;;;0.90;;
48871;SDS011;36154;51.674;7.824;2024-03-23T10:31:46;1.83;;;0.90;;
48871;SDS011;36154;51.674;7.824;2024-03-23T10:34:12;1.52;;;1.00;;
48871;SDS011;36154;51.674;7.824;2024-03-23T10:36:37;2.13;;;0.93;;
48871;SDS011;36154;51.674;7.824;2024-03-23T10:39:06;1.80;;;0.80;;
48871;SDS011;36154;51.674;7.824;2024-03-23T10:41:32;3.13;;;1.00;;
48871;SDS011;36154;51.674;7.824;2024-03-23T10:43:58;3.35;;;1.45;;
48871;SDS011;36154;51.674;7.824;2024-03-23T10:46:25;6.40;;;1.80;;
48871;SDS011;36154;51.674;7.824;2024-03-23T10:48:50;5.85;;;1.70;;
48871;SDS011;36154;51.674;7.824;2024-03-23T10:51:16;3.22;;;1.50;;
48871;SDS011;36154;51.674;7.824;2024-03-23T10:53:41;3.35;;;1.05;;
48871;SDS011;36154;51.674;7.824;2024-03-23T10:56:07;4.20;;;1.10;;
48871;SDS011;36154;51.674;7.824;2024-03-23T10:58:44;4.95;;;1.60;;
48871;SDS011;36154;51.674;7.824;2024-03-23T11:01:13;7.10;;;1.60;;
48871;SDS011;36154;51.674;7.824;2024-03-23T11:03:39;4.60;;;1.60;;
48871;SDS011;36154;51.674;7.824;2024-03-23T11:06:10;6.15;;;1.70;;
48871;SDS011;36154;51.674;7.824;2024-03-23T11:08:38;6.13;;;1.90;;
48871;SDS011;36154;51.674;7.824;2024-03-23T11:11:14;6.03;;;1.88;;
48871;SDS011;36154;51.674;7.824;2024-03-23T11:13:44;5.22;;;1.30;;
48871;SDS011;36154;51.674;7.824;2024-03-23T11:16:13;3.30;;;1.50;;
48871;SDS011;36154;51.674;7.824;2024-03-23T11:18:42;8.13;;;2.05;;
48871;SDS011;36154;51.674;7.824;2024-03-23T11:21:09;6.57;;;2.63;;
48871;SDS011;36154;51.674;7.824;2024-03-23T11:23:34;7.93;;;2.55;;
48871;SDS011;36154;51.674;7.824;2024-03-23T11:26:00;8.38;;;2.20;;
48871;SDS011;36154;51.674;7.824;2024-03-23T11:28:25;8.55;;;2.42;;
48871;SDS011;36154;51.674;7.824;2024-03-23T11:30:51;6.47;;;2.25;;
48871;SDS011;36154;51.674;7.824;2024-03-23T11:33:16;5.90;;;2.05;;
48871;SDS011;36154;51.674;7.824;2024-03-23T11:35:41;6.57;;;1.90;;
48871;SDS011;36154;51.674;7.824;2024-03-23T11:38:11;7.50;;;2.40;;
48871;SDS011;36154;51.674;7.824;2024-03-23T11:40:40;6.93;;;2.05;;
48871;SDS011;36154;51.674;7.824;2024-03-23T11:43:08;6.68;;;2.08;;
48871;SDS011;36154;51.674;7.824;2024-03-23T11:45:36;7.88;;;2.03;;
48871;SDS011;36154;51.674;7.824;2024-03-23T11:50:32;7.55;;;1.90;;
48871;SDS011;36154;51.674;7.824;2024-03-23T11:55:41;3.60;;;1.70;;
48871;SDS011;36154;51.674;7.824;2024-03-23T11:58:07;6.63;;;2.08;;
48871;SDS011;36154;51.674;7.824;2024-03-23T12:00:33;3.97;;;1.42;;
48871;SDS011;36154;51.674;7.824;2024-03-23T12:03:01;10.55;;;2.47;;
48871;SDS011;36154;51.674;7.824;2024-03-23T12:05:27;36.03;;;7.00;;
48871;SDS011;36154;51.674;7.824;2024-03-23T12:07:54;22.45;;;5.25;;
48871;SDS011;36154;51.674;7.824;2024-03-23T12:10:19;21.67;;;5.57;;
48871;SDS011;36154;51.674;7.824;2024-03-23T12:12:45;20.10;;;5.13;;
48871;SDS011;36154;51.674;7.824;2024-03-23T12:15:10;17.45;;;5.00;;
48871;SDS011;36154;51.674;7.824;2024-03-23T12:17:37;21.50;;;5.25;;
48871;SDS011;36154;51.674;7.824;2024-03-23T12:20:03;18.08;;;4.97;;
48871;SDS011;36154;51.674;7.824;2024-03-23T12:22:29;22.08;;;4.60;;
48871;SDS011;36154;51.674;7.824;2024-03-23T12:24:55;16.33;;;3.83;;
48871;SDS011;36154;51.674;7.824;2024-03-23T12:27:20;17.48;;;4.30;;
48871;SDS011;36154;51.674;7.824;2024-03-23T12:29:45;12.70;;;4.05;;
48871;SDS011;36154;51.674;7.824;2024-03-23T12:32:12;18.60;;;4.18;;
48871;SDS011;36154;51.674;7.824;2024-03-23T12:34:38;13.45;;;3.85;;
48871;SDS011;36154;51.674;7.824;2024-03-23T12:37:03;17.58;;;3.80;;
48871;SDS011;36154;51.674;7.824;2024-03-23T12:39:29;15.32;;;3.28;;
48871;SDS011;36154;51.674;7.824;2024-03-23T12:41:54;11.45;;;3.42;;
48871;SDS011;36154;51.674;7.824;2024-03-23T12:44:19;10.48;;;3.17;;
48871;SDS011;36154;51.674;7.824;2024-03-23T12:46:45;10.00;;;3.38;;
48871;SDS011;36154;51.674;7.824;2024-03-23T12:49:11;11.13;;;3.22;;
48871;SDS011;36154;51.674;7.824;2024-03-23T12:51:37;5.20;;;1.52;;
48871;SDS011;36154;51.674;7.824;2024-03-23T12:54:03;3.47;;;0.93;;
48871;SDS011;36154;51.674;7.824;2024-03-23T12:56:28;3.50;;;1.13;;
48871;SDS011;36154;51.674;7.824;2024-03-23T12:58:57;1.67;;;1.10;;
48871;SDS011;36154;51.674;7.824;2024-03-23T13:01:25;3.92;;;1.27;;
48871;SDS011;36154;51.674;7.824;2024-03-23T13:03:50;3.72;;;1.40;;
48871;SDS011;36154;51.674;7.824;2024-03-23T13:06:16;3.92;;;1.55;;
48871;SDS011;36154;51.674;7.824;2024-03-23T13:08:46;3.70;;;1.20;;
48871;SDS011;36154;51.674;7.824;2024-03-23T13:11:12;2.00;;;1.02;;
48871;SDS011;36154;51.674;7.824;2024-03-23T13:13:38;4.38;;;1.70;;
48871;SDS011;36154;51.674;7.824;2024-03-23T13:16:04;8.05;;;1.35;;
48871;SDS011;36154;51.674;7.824;2024-03-23T13:18:30;2.25;;;1.38;;
48871;SDS011;36154;51.674;7.824;2024-03-23T13:20:56;3.60;;;1.08;;
48871;SDS011;36154;51.674;7.824;2024-03-23T13:23:21;3.47;;;1.02;;
48871;SDS011;36154;51.674;7.824;2024-03-23T13:25:53;2.05;;;1.10;;
48871;SDS011;36154;51.674;7.824;2024-03-23T13:28:20;2.78;;;1.02;;
48871;SDS011;36154;51.674;7.824;2024-03-23T13:30:52;2.40;;;0.80;;
48871;SDS011;36154;51.674;7.824;2024-03-23T13:33:18;2.22;;;0.98;;
48871;SDS011;36154;51.674;7.824;2024-03-23T13:35:53;1.85;;;0.93;;
48871;SDS011;36154;51.674;7.824;2024-03-23T13:38:21;1.98;;;0.90;;
48871;SDS011;36154;51.674;7.824;2024-03-23T13:40:56;1.35;;;0.73;;
48871;SDS011;36154;51.674;7.824;2024-03-23T13:43:23;1.83;;;0.85;;
48871;SDS011;36154;51.674;7.824;2024-03-23T13:45:56;4.22;;;0.75;;
48871;SDS011;36154;51.674;7.824;2024-03-23T13:48:23;1.10;;;0.70;;
48871;SDS011;36154;51.674;7.824;2024-03-23T13:53:27;1.05;;;0.70;;
48871;SDS011;36154;51.674;7.824;2024-03-23T13:55:53;1.00;;;0.68;;
48871;SDS011;36154;51.674;7.824;2024-03-23T13:58:18;1.10;;;0.70;;
48871;SDS011;36154;51.674;7.824;2024-03-23T14:00:44;1.52;;;0.68;;
48871;SDS011;36154;51.674;7.824;2024-03-23T14:03:09;3.05;;;0.90;;
48871;SDS011;36154;51.674;7.824;2024-03-23T14:05:36;3.65;;;1.05;;
48871;SDS011;36154;51.674;7.824;2024-03-23T14:08:03;1.92;;;0.70;;
48871;SDS011;36154;51.674;7.824;2024-03-23T14:10:32;1.55;;;0.77;;
48871;SDS011;36154;51.674;7.824;2024-03-23T14:12:57;1.25;;;0.70;;
48871;SDS011;36154;51.674;7.824;2024-03-23T14:15:24;0.90;;;0.80;;
48871;SDS011;36154;51.674;7.824;2024-03-23T14:17:50;1.20;;;0.75;;
48871;SDS011;36154;51.674;7.824;2024-03-23T14:20:16;4.38;;;0.90;;
48871;SDS011;36154;51.674;7.824;2024-03-23T14:22:41;0.90;;;0.70;;
48871;SDS011;36154;51.674;7.824;2024-03-23T14:25:07;2.13;;;0.60;;
48871;SDS011;36154;51.674;7.824;2024-03-23T14:27:32;1.52;;;0.90;;
48871;SDS011;36154;51.674;7.824;2024-03-23T14:29:57;2.05;;;0.70;;
48871;SDS011;36154;51.674;7.824;2024-03-23T14:32:22;3.47;;;0.63;;
48871;SDS011;36154;51.674;7.824;2024-03-23T14:34:48;3.40;;;0.80;;
48871;SDS011;36154;51.674;7.824;2024-03-23T14:37:13;2.92;;;0.82;;
48871;SDS011;36154;51.674;7.824;2024-03-23T14:39:40;1.67;;;0.60;;
48871;SDS011;36154;51.674;7.824;2024-03-23T14:42:06;1.40;;;0.70;;
48871;SDS011;36154;51.674;7.824;2024-03-23T14:44:33;2.75;;;1.02;;
48871;SDS011;36154;51.674;7.824;2024-03-23T14:46:59;1.08;;;0.55;;
48871;SDS011;36154;51.674;7.824;2024-03-23T14:49:24;1.90;;;0.75;;
48871;SDS011;36154;51.674;7.824;2024-03-23T14:51:51;1.42;;;0.57;;
48871;SDS011;36154;51.674;7.824;2024-03-23T14:54:16;2.05;;;0.40;;
48871;SDS011;36154;51.674;7.824;2024-03-23T14:56:41;0.93;;;0.40;;
48871;SDS011;36154;51.674;7.824;2024-03-23T14:59:06;1.07;;;0.60;;
48871;SDS011;36154;51.674;7.824;2024-03-23T15:01:32;1.63;;;0.50;;
48871;SDS011;36154;51.674;7.824;2024-03-23T15:03:58;2.53;;;0.45;;
48871;SDS011;36154;51.674;7.824;2024-03-23T15:06:23;2.00;;;0.50;;
48871;SDS011;36154;51.674;7.824;2024-03-23T15:08:48;2.05;;;0.40;;
48871;SDS011;36154;51.674;7.824;2024-03-23T15:11:14;1.05;;;0.43;;
48871;SDS011;36154;51.674;7.824;2024-03-23T15:13:39;1.40;;;0.30;;
48871;SDS011;36154;51.674;7.824;2024-03-23T15:16:05;0.88;;;0.43;;
48871;SDS011;36154;51.674;7.824;2024-03-23T15:18:31;1.08;;;0.40;;
48871;SDS011;36154;51.674;7.824;2024-03-23T15:21:01;2.50;;;0.50;;
48871;SDS011;36154;51.674;7.824;2024-03-23T15:23:27;0.60;;;0.43;;
48871;SDS011;36154;51.674;7.824;2024-03-23T15:25:56;1.55;;;0.68;;
48871;SDS011;36154;51.674;7.824;2024-03-23T15:28:23;1.05;;;0.43;;
48871;SDS011;36154;51.674;7.824;2024-03-23T15:30:48;1.25;;;0.50;;
48871;SDS011;36154;51.674;7.824;2024-03-23T15:33:13;0.52;;;0.40;;
48871;SDS011;36154;51.674;7.824;2024-03-23T15:35:39;1.40;;;0.40;;
48871;SDS011;36154;51.674;7.824;2024-03-23T15:38:04;1.17;;;0.60;;
48871;SDS011;36154;51.674;7.824;2024-03-23T15:40:29;0.77;;;0.40;;
48871;SDS011;36154;51.674;7.824;2024-03-23T15:42:54;0.77;;;0.40;;